createdAt,value
2018-05-25T00:00:28.205Z,3.73
2018-05-25T00:02:54.528Z,3.43
2018-05-25T00:05:20.867Z,3.60
2018-05-25T00:07:47.218Z,3.60
2018-05-25T00:10:14.330Z,4.10
2018-05-25T00:12:40.681Z,3.40
2018-05-25T00:15:07.017Z,4.20
2018-05-25T00:17:34.069Z,4.03
2018-05-25T00:20:01.156Z,3.50
2018-05-25T00:22:27.485Z,3.30
2018-05-25T00:24:53.847Z,3.10
2018-05-25T00:27:20.192Z,3.60
2018-05-25T00:29:46.539Z,4.13
2018-05-25T00:32:13.618Z,4.10
2018-05-25T00:34:40.060Z,3.50
2018-05-25T00:37:06.406Z,4.57
2018-05-25T00:39:32.705Z,4.30
2018-05-25T00:41:59.045Z,3.87
2018-05-25T00:44:25.421Z,3.67
2018-05-25T00:46:51.808Z,3.93
2018-05-25T00:49:18.166Z,3.43
2018-05-25T00:51:44.523Z,3.87
2018-05-25T00:54:10.895Z,4.97
2018-05-25T00:56:38.048Z,4.90
2018-05-25T00:59:04.399Z,4.53
2018-05-25T01:01:30.772Z,4.43
2018-05-25T01:03:57.087Z,4.00
2018-05-25T01:06:23.455Z,4.50
2018-05-25T01:08:49.826Z,4.83
2018-05-25T01:11:16.232Z,3.57
2018-05-25T01:13:43.322Z,3.90
2018-05-25T01:16:09.702Z,4.10
2018-05-25T01:18:36.800Z,4.10
2018-05-25T01:21:03.209Z,3.80
2018-05-25T01:23:29.576Z,3.90
2018-05-25T01:25:55.962Z,3.70
2018-05-25T01:28:22.403Z,4.90
2018-05-25T01:30:48.746Z,4.60
2018-05-25T01:33:15.064Z,4.80
2018-05-25T01:35:42.158Z,3.70
2018-05-25T01:38:08.509Z,4.10
2018-05-25T01:40:34.823Z,4.60
2018-05-25T01:43:01.903Z,4.60
2018-05-25T01:45:29.032Z,4.83
2018-05-25T01:47:55.274Z,4.00
2018-05-25T01:50:21.619Z,4.03
2018-05-25T01:52:48.718Z,4.23
2018-05-25T01:55:15.096Z,5.47
2018-05-25T01:57:42.175Z,4.43
2018-05-25T02:00:08.541Z,4.77
2018-05-25T02:02:34.889Z,5.47
2018-05-25T02:05:01.243Z,4.87
2018-05-25T02:07:28.405Z,4.50
2018-05-25T02:09:55.515Z,4.87
2018-05-25T02:12:21.890Z,5.10
2018-05-25T02:14:48.246Z,5.03
2018-05-25T02:17:14.614Z,5.50
2018-05-25T02:19:40.988Z,5.30
2018-05-25T02:22:07.385Z,5.80
2018-05-25T02:24:33.745Z,4.70
2018-05-25T02:27:00.823Z,5.37
2018-05-25T02:29:27.170Z,5.07
2018-05-25T02:31:53.554Z,5.27
2018-05-25T02:34:20.636Z,4.80
2018-05-25T02:36:46.982Z,4.73
2018-05-25T02:39:13.325Z,6.07
2018-05-25T02:41:39.630Z,5.50
2018-05-25T02:44:06.135Z,5.43
2018-05-25T02:46:33.251Z,5.20
2018-05-25T02:49:00.334Z,6.00
2018-05-25T02:51:26.721Z,4.60
2018-05-25T02:53:53.067Z,6.17
2018-05-25T02:56:19.396Z,6.20
2018-05-25T02:58:45.747Z,5.87
2018-05-25T03:01:12.828Z,5.20
2018-05-25T03:03:39.166Z,5.63
2018-05-25T03:06:05.496Z,5.70
2018-05-25T03:08:31.869Z,6.37
2018-05-25T03:10:58.218Z,6.67
2018-05-25T03:13:24.574Z,5.60
2018-05-25T03:15:51.651Z,5.90
2018-05-25T03:18:17.986Z,6.10
2018-05-25T03:20:44.345Z,5.80
2018-05-25T03:23:10.708Z,5.60
2018-05-25T03:25:37.813Z,6.20
2018-05-25T03:28:04.186Z,6.10
2018-05-25T03:30:31.308Z,5.67
2018-05-25T03:32:57.627Z,6.40
2018-05-25T03:35:23.952Z,6.30
2018-05-25T03:37:50.329Z,6.63
2018-05-25T03:40:17.437Z,5.77
2018-05-25T03:42:43.792Z,5.50
2018-05-25T03:45:10.182Z,5.10
2018-05-25T03:47:36.534Z,6.40
2018-05-25T03:50:02.952Z,6.30
2018-05-25T03:52:29.290Z,5.33
2018-05-25T03:54:55.727Z,5.77
2018-05-25T03:57:22.091Z,6.00
2018-05-25T04:00:07.946Z,6.30
2018-05-25T04:02:34.270Z,6.10
2018-05-25T04:05:00.620Z,6.30
2018-05-25T04:07:28.149Z,6.17
2018-05-25T04:09:54.490Z,6.67
2018-05-25T04:12:21.092Z,5.83
2018-05-25T04:14:47.481Z,6.47
2018-05-25T04:17:13.822Z,6.53
2018-05-25T04:19:40.234Z,6.23
2018-05-25T04:22:06.604Z,6.20
2018-05-25T04:24:33.041Z,6.57
2018-05-25T04:27:00.145Z,6.30
2018-05-25T04:29:26.511Z,6.63
2018-05-25T04:31:52.844Z,6.17
2018-05-25T04:34:19.910Z,6.63
2018-05-25T04:36:47.027Z,6.30
2018-05-25T04:39:13.344Z,5.80
2018-05-25T04:41:39.700Z,6.57
2018-05-25T04:44:06.062Z,6.80
2018-05-25T04:46:33.187Z,6.73
2018-05-25T04:48:59.579Z,5.00
2018-05-25T04:51:25.983Z,6.83
2018-05-25T04:53:53.108Z,5.80
2018-05-25T04:56:20.299Z,5.23
2018-05-25T04:58:46.673Z,4.47
2018-05-25T05:01:13.110Z,4.83
2018-05-25T05:03:39.477Z,5.20
2018-05-25T05:06:06.617Z,5.03
2018-05-25T05:08:33.806Z,6.50
2018-05-25T05:11:00.886Z,5.30
2018-05-25T05:13:27.273Z,5.00
2018-05-25T05:15:53.644Z,5.27
2018-05-25T05:18:20.003Z,5.03
2018-05-25T05:20:47.881Z,4.57
2018-05-25T05:23:14.384Z,4.53
2018-05-25T05:25:40.733Z,5.60
2018-05-25T05:28:07.198Z,4.90
2018-05-25T05:30:34.298Z,4.80
2018-05-25T05:33:00.673Z,4.87
2018-05-25T05:35:27.780Z,4.67
2018-05-25T05:37:54.130Z,6.03
2018-05-25T05:40:20.492Z,5.90
2018-05-25T05:42:47.578Z,4.83
2018-05-25T05:45:13.946Z,4.20
2018-05-25T05:47:41.800Z,5.43
2018-05-25T05:50:08.159Z,5.00
2018-05-25T05:52:35.291Z,5.30
2018-05-25T05:55:02.373Z,5.10
2018-05-25T05:57:29.579Z,5.67
2018-05-25T05:59:55.943Z,4.70
2018-05-25T06:02:23.097Z,4.13
2018-05-25T06:04:50.190Z,4.80
2018-05-25T06:07:16.535Z,5.90
2018-05-25T06:09:42.883Z,3.93
2018-05-25T06:12:09.214Z,4.80
2018-05-25T06:14:35.563Z,5.57
2018-05-25T06:17:01.899Z,4.10
2018-05-25T06:19:29.043Z,4.50
2018-05-25T06:21:55.433Z,4.13
2018-05-25T06:24:21.964Z,3.70
2018-05-25T06:26:48.334Z,5.07
2018-05-25T06:29:15.438Z,4.97
2018-05-25T06:31:41.778Z,4.50
2018-05-25T06:34:08.166Z,4.50
2018-05-25T06:36:35.251Z,4.37
2018-05-25T06:39:01.613Z,4.10
2018-05-25T06:41:27.961Z,3.97
2018-05-25T06:43:54.291Z,4.23
2018-05-25T06:46:20.620Z,4.80
2018-05-25T06:48:46.994Z,4.27
2018-05-25T06:51:13.369Z,5.63
2018-05-25T06:53:39.730Z,5.63
2018-05-25T06:56:06.088Z,6.20
2018-05-25T06:58:32.463Z,4.90
2018-05-25T07:00:58.844Z,4.20
2018-05-25T07:03:25.941Z,4.47
2018-05-25T07:05:52.331Z,5.57
2018-05-25T07:08:18.673Z,5.30
2018-05-25T07:10:45.045Z,4.60
2018-05-25T07:13:11.459Z,4.00
2018-05-25T07:15:38.749Z,4.93
2018-05-25T07:18:05.145Z,3.53
2018-05-25T07:20:31.500Z,4.53
2018-05-25T07:22:57.877Z,4.60
2018-05-25T07:25:24.968Z,3.80
2018-05-25T07:27:51.333Z,3.70
2018-05-25T07:30:17.692Z,4.10
2018-05-25T07:32:44.059Z,3.83
2018-05-25T07:35:10.425Z,3.87
2018-05-25T07:37:38.241Z,3.60
2018-05-25T07:40:04.624Z,3.00
2018-05-25T07:42:30.975Z,3.93
2018-05-25T07:44:58.062Z,6.23
2018-05-25T07:47:24.390Z,4.07
2018-05-25T07:49:50.770Z,3.90
2018-05-25T07:52:17.155Z,3.80
2018-05-25T07:54:43.521Z,2.80
2018-05-25T07:57:09.898Z,2.80
2018-05-25T07:59:36.229Z,3.07
2018-05-25T08:02:03.320Z,3.53
2018-05-25T08:04:29.654Z,2.80
2018-05-25T08:06:55.987Z,3.60
2018-05-25T08:09:22.318Z,2.93
2018-05-25T08:11:48.660Z,2.83
2018-05-25T08:14:15.023Z,3.13
2018-05-25T08:16:42.111Z,2.77
2018-05-25T08:19:08.481Z,2.90
2018-05-25T08:21:34.806Z,2.70
2018-05-25T08:24:01.125Z,2.77
2018-05-25T08:26:28.209Z,2.73
2018-05-25T08:28:55.326Z,2.20
2018-05-25T08:31:21.661Z,2.83
2018-05-25T08:33:48.005Z,2.67
2018-05-25T08:36:14.351Z,2.40
2018-05-25T08:38:40.767Z,2.17
2018-05-25T08:41:07.142Z,2.83
2018-05-25T08:43:33.514Z,2.57
2018-05-25T08:45:59.855Z,1.57
2018-05-25T08:48:26.218Z,2.30
2018-05-25T08:50:53.316Z,2.63
2018-05-25T08:53:19.654Z,1.97
2018-05-25T08:55:46.027Z,1.80
2018-05-25T08:58:12.320Z,2.47
2018-05-25T09:00:38.680Z,1.93
2018-05-25T09:03:05.009Z,2.50
2018-05-25T09:05:31.426Z,1.83
2018-05-25T09:07:58.463Z,2.23
2018-05-25T09:10:25.553Z,1.90
2018-05-25T09:12:52.655Z,2.33
2018-05-25T09:15:19.009Z,1.90
2018-05-25T09:17:45.364Z,2.00
2018-05-25T09:20:12.476Z,1.73
2018-05-25T09:22:38.801Z,2.17
2018-05-25T09:25:05.135Z,2.60
2018-05-25T09:27:31.511Z,2.50
2018-05-25T09:29:58.689Z,1.80
2018-05-25T09:32:25.078Z,2.00
2018-05-25T09:34:51.494Z,1.87
2018-05-25T09:37:17.838Z,2.47
2018-05-25T09:39:45.878Z,2.17
2018-05-25T09:42:12.338Z,1.87
2018-05-25T09:44:38.761Z,1.80
2018-05-25T09:47:05.113Z,1.90
2018-05-25T09:49:32.950Z,1.60
2018-05-25T09:51:59.310Z,1.80
2018-05-25T09:54:25.734Z,1.93
2018-05-25T09:57:00.304Z,1.43
2018-05-25T09:59:26.658Z,1.70
2018-05-25T10:01:52.981Z,1.70
2018-05-25T10:04:19.338Z,1.87
2018-05-25T10:06:45.719Z,1.73
2018-05-25T10:09:12.770Z,1.67
2018-05-25T10:11:39.888Z,2.00
2018-05-25T10:14:06.260Z,2.20
2018-05-25T10:16:32.609Z,2.33
2018-05-25T10:18:58.971Z,1.40
2018-05-25T10:21:25.375Z,1.80
2018-05-25T10:23:51.767Z,1.57
2018-05-25T10:26:18.918Z,1.90
2018-05-25T10:28:46.020Z,1.80
2018-05-25T10:31:12.380Z,2.40
2018-05-25T10:33:38.717Z,1.90
2018-05-25T10:36:06.581Z,1.90
2018-05-25T10:38:32.946Z,2.67
2018-05-25T10:41:00.049Z,1.90
2018-05-25T10:43:26.351Z,2.10
2018-05-25T10:45:52.650Z,2.00
2018-05-25T10:48:19.671Z,1.87
2018-05-25T10:50:45.992Z,2.67
2018-05-25T10:53:13.106Z,2.40
2018-05-25T10:55:39.520Z,2.20
2018-05-25T10:58:06.650Z,2.53
2018-05-25T11:00:32.989Z,2.70
2018-05-25T11:03:00.033Z,2.37
2018-05-25T11:05:26.295Z,2.50
2018-05-25T11:07:52.531Z,2.13
2018-05-25T11:10:18.866Z,1.90
2018-05-25T11:12:45.102Z,2.47
2018-05-25T11:15:11.356Z,2.47
2018-05-25T11:17:37.641Z,2.00
2018-05-25T11:20:03.990Z,2.13
2018-05-25T11:22:30.316Z,2.10
2018-05-25T11:24:56.585Z,2.20
2018-05-25T11:27:22.864Z,2.07
2018-05-25T11:29:49.164Z,2.73
2018-05-25T11:32:15.464Z,2.53
2018-05-25T11:34:41.799Z,3.10
2018-05-25T11:37:08.087Z,2.63
2018-05-25T11:39:34.344Z,2.50
2018-05-25T11:42:00.613Z,2.37
2018-05-25T11:44:26.900Z,2.10
2018-05-25T11:46:53.185Z,2.00
2018-05-25T11:49:20.250Z,2.00
2018-05-25T11:51:46.575Z,2.00
2018-05-25T11:54:13.593Z,2.83
2018-05-25T11:56:39.862Z,1.80
2018-05-25T11:59:06.159Z,2.90
2018-05-25T12:01:32.491Z,2.97
2018-05-25T12:03:58.785Z,2.50
2018-05-25T12:06:25.125Z,2.27
2018-05-25T12:08:51.414Z,2.83
2018-05-25T12:11:17.744Z,2.20
2018-05-25T12:13:43.995Z,2.77
2018-05-25T12:16:10.287Z,2.40
2018-05-25T12:18:37.333Z,2.60
2018-05-25T12:21:04.395Z,2.40
2018-05-25T12:23:31.401Z,2.20
2018-05-25T12:25:57.694Z,2.50
2018-05-25T12:28:24.023Z,2.50
2018-05-25T12:30:50.307Z,1.97
2018-05-25T12:33:16.641Z,2.33
2018-05-25T12:35:42.919Z,1.93
2018-05-25T12:38:09.223Z,2.00
2018-05-25T12:40:36.276Z,1.77
2018-05-25T12:43:03.335Z,1.83
2018-05-25T12:45:29.618Z,2.07
2018-05-25T12:47:55.928Z,2.00
2018-05-25T12:50:22.225Z,1.90
2018-05-25T12:52:48.511Z,2.10
2018-05-25T12:55:14.843Z,2.57
2018-05-25T12:57:41.143Z,1.90
2018-05-25T13:00:07.475Z,1.97
2018-05-25T13:02:33.767Z,1.80
2018-05-25T13:05:00.767Z,1.63
2018-05-25T13:07:27.072Z,1.70
2018-05-25T13:09:53.360Z,1.40
2018-05-25T13:12:20.393Z,1.73
2018-05-25T13:14:46.650Z,1.20
2018-05-25T13:17:13.738Z,1.60
2018-05-25T13:19:40.020Z,1.93
2018-05-25T13:22:07.206Z,4.20
2018-05-25T13:24:33.501Z,2.20
2018-05-25T13:27:00.517Z,1.77
2018-05-25T13:29:28.807Z,1.73
2018-05-25T13:31:55.115Z,1.57
2018-05-25T13:34:21.426Z,1.70
2018-05-25T13:36:47.759Z,1.60
2018-05-25T13:39:14.081Z,1.57
2018-05-25T13:41:40.407Z,1.30
2018-05-25T13:44:06.733Z,1.43
2018-05-25T13:46:33.078Z,1.30
2018-05-25T13:48:59.419Z,1.40
2018-05-25T13:51:25.866Z,1.17
2018-05-25T13:53:52.202Z,1.17
2018-05-25T13:56:18.532Z,1.57
2018-05-25T13:58:44.812Z,0.97
2018-05-25T14:01:11.938Z,1.40
2018-05-25T14:03:38.218Z,1.07
2018-05-25T14:06:04.550Z,1.30
2018-05-25T14:08:30.804Z,1.00
2018-05-25T14:10:57.158Z,1.30
2018-05-25T14:13:23.482Z,1.23
2018-05-25T14:15:49.866Z,1.30
2018-05-25T14:18:16.231Z,1.83
2018-05-25T14:20:42.683Z,1.70
2018-05-25T14:23:08.983Z,2.00
2018-05-25T14:25:35.285Z,2.10
2018-05-25T14:28:01.631Z,2.10
2018-05-25T14:30:27.979Z,1.77
2018-05-25T14:32:54.300Z,2.30
2018-05-25T14:35:20.572Z,2.20
2018-05-25T14:37:46.836Z,2.33
2018-05-25T14:40:13.894Z,2.13
2018-05-25T14:42:40.238Z,2.70
2018-05-25T14:45:06.562Z,1.80
2018-05-25T14:47:32.863Z,2.23
2018-05-25T14:49:59.210Z,2.20
2018-05-25T14:52:25.573Z,2.17
2018-05-25T14:54:51.898Z,2.70
2018-05-25T14:57:18.214Z,1.93
2018-05-25T14:59:44.586Z,2.07
2018-05-25T15:02:10.929Z,1.60
2018-05-25T15:04:37.308Z,1.40
2018-05-25T15:07:03.604Z,1.93
2018-05-25T15:09:29.989Z,1.60
2018-05-25T15:11:56.340Z,1.77
2018-05-25T15:14:22.668Z,2.30
2018-05-25T15:16:48.980Z,1.90
2018-05-25T15:19:15.331Z,2.67
2018-05-25T15:21:41.628Z,1.90
2018-05-25T15:24:07.937Z,2.27
2018-05-25T15:26:35.028Z,2.70
2018-05-25T15:29:01.378Z,2.27
2018-05-25T15:31:27.711Z,2.30
2018-05-25T15:33:54.067Z,2.70
2018-05-25T15:36:21.158Z,2.90
2018-05-25T15:38:47.499Z,2.53
2018-05-25T15:41:13.866Z,2.50
2018-05-25T15:43:40.374Z,2.03
2018-05-25T15:46:06.734Z,2.77
2018-05-25T15:48:40.101Z,2.50
2018-05-25T15:51:06.513Z,2.07
2018-05-25T15:53:32.876Z,2.10
2018-05-25T15:56:00.246Z,2.13
2018-05-25T15:58:26.598Z,1.80
2018-05-25T16:00:53.911Z,3.87
2018-05-25T16:03:20.233Z,2.63
2018-05-25T16:05:46.543Z,2.00
2018-05-25T16:08:12.839Z,2.73
2018-05-25T16:10:39.195Z,1.93
2018-05-25T16:13:06.235Z,2.40
2018-05-25T16:15:32.669Z,1.93
2018-05-25T16:17:59.122Z,2.37
2018-05-25T16:20:25.444Z,2.10
2018-05-25T16:22:51.781Z,2.40
2018-05-25T16:25:18.083Z,2.87
2018-05-25T16:27:45.175Z,2.20
2018-05-25T16:30:11.474Z,2.67
2018-05-25T16:32:38.996Z,2.43
2018-05-25T16:35:05.367Z,2.30
2018-05-25T16:37:32.435Z,3.00
2018-05-25T16:39:58.814Z,2.57
2018-05-25T16:42:25.233Z,2.60
2018-05-25T16:44:51.575Z,3.60
2018-05-25T16:47:17.861Z,3.10
2018-05-25T16:49:44.538Z,4.10
2018-05-25T16:52:10.913Z,3.03
2018-05-25T16:54:38.008Z,2.73
2018-05-25T16:57:04.350Z,2.93
2018-05-25T16:59:30.775Z,3.43
2018-05-25T17:01:57.159Z,2.83
2018-05-25T17:04:24.175Z,2.90
2018-05-25T17:06:50.603Z,2.93
2018-05-25T17:09:16.993Z,2.93
2018-05-25T17:11:43.356Z,3.00
2018-05-25T17:14:09.676Z,2.73
2018-05-25T17:16:36.123Z,3.03
2018-05-25T17:19:02.477Z,3.30
2018-05-25T17:21:31.620Z,2.83
2018-05-25T17:23:58.023Z,2.93
2018-05-25T17:26:25.179Z,3.27
2018-05-25T17:28:52.206Z,4.07
2018-05-25T17:31:18.525Z,2.77
2018-05-25T17:33:45.191Z,2.93
2018-05-25T17:36:12.293Z,2.70
2018-05-25T17:38:38.579Z,3.63
2018-05-25T17:41:07.704Z,3.80
2018-05-25T17:43:33.998Z,4.47
2018-05-25T17:46:00.294Z,4.50
2018-05-25T17:48:26.591Z,3.90
2018-05-25T17:50:52.935Z,3.20
2018-05-25T17:53:19.258Z,3.27
2018-05-25T17:55:45.554Z,3.20
2018-05-25T17:58:12.646Z,3.77
2018-05-25T18:00:39.004Z,3.23
2018-05-25T18:03:05.325Z,3.60
2018-05-25T18:05:31.634Z,5.90
2018-05-25T18:07:58.008Z,5.93
2018-05-25T18:10:24.362Z,3.47
2018-05-25T18:12:50.651Z,3.30
2018-05-25T18:15:17.003Z,5.83
2018-05-25T18:17:43.438Z,4.63
2018-05-25T18:20:10.415Z,4.80
2018-05-25T18:22:37.497Z,14.50
2018-05-25T18:25:03.776Z,4.87
2018-05-25T18:27:30.056Z,5.70
2018-05-25T18:29:56.388Z,3.70
2018-05-25T18:32:22.686Z,3.80
2018-05-25T18:34:49.740Z,4.50
2018-05-25T18:37:16.130Z,3.97
2018-05-25T18:39:42.692Z,4.17
2018-05-25T18:42:09.780Z,3.80
2018-05-25T18:44:36.096Z,24.10
2018-05-25T18:47:02.455Z,5.67
2018-05-25T18:49:28.764Z,4.87
2018-05-25T18:51:55.233Z,4.67
2018-05-25T18:54:31.578Z,4.57
2018-05-25T18:56:57.859Z,7.23
2018-05-25T18:59:24.198Z,7.00
2018-05-25T19:01:50.511Z,5.73
2018-05-25T19:04:16.923Z,7.53
2018-05-25T19:06:43.191Z,6.90
2018-05-25T19:09:09.448Z,8.93
2018-05-25T19:11:35.816Z,6.20
2018-05-25T19:14:02.165Z,7.80
2018-05-25T19:16:28.459Z,12.70
2018-05-25T19:18:54.824Z,10.83
2018-05-25T19:21:21.156Z,10.43
2018-05-25T19:23:47.504Z,11.47
2018-05-25T19:26:14.570Z,17.67
2018-05-25T19:28:41.652Z,18.03
2018-05-25T19:31:08.011Z,17.10
2018-05-25T19:33:34.323Z,17.87
2018-05-25T19:36:00.660Z,12.03
2018-05-25T19:38:26.992Z,8.73
2018-05-25T19:40:53.338Z,10.03
2018-05-25T19:43:19.688Z,9.00
2018-05-25T19:45:46.840Z,7.90
2018-05-25T19:48:13.192Z,8.67
2018-05-25T19:50:40.290Z,9.23
2018-05-25T19:53:06.653Z,11.10
2018-05-25T19:55:33.057Z,9.40
2018-05-25T19:57:59.403Z,11.90
2018-05-25T20:00:25.778Z,21.07
2018-05-25T20:02:52.248Z,36.00
2018-05-25T20:05:18.571Z,28.27
2018-05-25T20:07:44.971Z,26.70
2018-05-25T20:10:12.042Z,27.10
2018-05-25T20:12:38.372Z,45.00
2018-05-25T20:15:04.712Z,31.90
2018-05-25T20:17:31.832Z,12.30
2018-05-25T20:19:58.880Z,10.13
2018-05-25T20:22:25.959Z,14.93
2018-05-25T20:24:52.334Z,17.33
2018-05-25T20:27:18.722Z,12.40
2018-05-25T20:29:45.022Z,27.37
2018-05-25T20:32:12.077Z,24.77
2018-05-25T20:34:38.391Z,24.07
2018-05-25T20:37:05.442Z,13.20
2018-05-25T20:39:31.740Z,7.20
2018-05-25T20:41:58.123Z,7.33
2018-05-25T20:44:24.490Z,10.80
2018-05-25T20:46:50.825Z,10.83
2018-05-25T20:49:17.164Z,8.27
2018-05-25T20:51:43.552Z,7.10
2018-05-25T20:54:10.099Z,9.07
2018-05-25T20:56:36.427Z,9.00
2018-05-25T20:59:02.725Z,16.17
2018-05-25T21:01:29.788Z,20.80
2018-05-25T21:03:56.828Z,17.17
2018-05-25T21:06:23.926Z,10.43
2018-05-25T21:08:50.197Z,8.60
2018-05-25T21:11:16.552Z,7.47
2018-05-25T21:13:43.581Z,10.13
2018-05-25T21:16:10.596Z,8.20
2018-05-25T21:18:37.607Z,9.40
2018-05-25T21:21:03.876Z,8.47
2018-05-25T21:23:30.192Z,11.20
2018-05-25T21:25:56.458Z,10.00
2018-05-25T21:28:22.818Z,10.50
2018-05-25T21:30:49.216Z,10.73
2018-05-25T21:33:15.538Z,9.90
2018-05-25T21:35:41.943Z,10.10
2018-05-25T21:38:08.268Z,9.53
2018-05-25T21:40:34.568Z,9.90
2018-05-25T21:43:01.632Z,10.20
2018-05-25T21:45:27.924Z,9.90
2018-05-25T21:47:54.307Z,9.57
2018-05-25T21:50:20.575Z,12.13
2018-05-25T21:52:46.883Z,9.27
2018-05-25T21:55:13.179Z,10.00
2018-05-25T21:57:39.480Z,15.77
2018-05-25T22:00:05.776Z,16.03
2018-05-25T22:02:32.163Z,11.57
2018-05-25T22:04:59.210Z,9.53
2018-05-25T22:07:26.214Z,8.33
2018-05-25T22:09:52.491Z,9.00
2018-05-25T22:12:18.778Z,8.97
2018-05-25T22:14:45.039Z,9.27
2018-05-25T22:17:11.376Z,8.07
2018-05-25T22:19:38.428Z,8.97
2018-05-25T22:22:04.763Z,8.60
2018-05-25T22:24:31.047Z,8.27
2018-05-25T22:26:57.356Z,10.00
2018-05-25T22:29:23.648Z,8.47
2018-05-25T22:31:49.945Z,9.47
2018-05-25T22:34:16.247Z,12.27
2018-05-25T22:36:42.532Z,12.20
2018-05-25T22:39:08.880Z,10.77
2018-05-25T22:41:35.241Z,11.07
2018-05-25T22:44:20.240Z,11.70
2018-05-25T22:47:05.121Z,12.17
2018-05-25T22:49:50.043Z,11.67
2018-05-25T22:52:22.597Z,9.77
2018-05-25T22:54:52.007Z,11.47
2018-05-25T22:57:18.316Z,9.53
2018-05-25T22:59:44.593Z,9.60
2018-05-25T23:02:10.876Z,10.03
2018-05-25T23:04:37.927Z,9.33
2018-05-25T23:07:05.023Z,9.80
2018-05-25T23:09:31.381Z,9.53
2018-05-25T23:11:57.663Z,9.43
2018-05-25T23:14:23.938Z,10.23
2018-05-25T23:16:50.913Z,9.83
2018-05-25T23:19:17.915Z,10.40
2018-05-25T23:21:44.220Z,10.37
2018-05-25T23:24:10.555Z,9.50
2018-05-25T23:26:36.880Z,10.20
2018-05-25T23:29:03.242Z,10.30
2018-05-25T23:31:29.548Z,10.90
2018-05-25T23:33:55.874Z,10.13
2018-05-25T23:36:22.109Z,11.33
2018-05-25T23:38:48.401Z,10.10
2018-05-25T23:41:15.480Z,11.30
2018-05-25T23:43:41.738Z,13.07
2018-05-25T23:46:08.043Z,14.70
2018-05-25T23:48:34.390Z,18.70
2018-05-25T23:51:00.653Z,16.77
2018-05-25T23:53:26.942Z,16.83
2018-05-25T23:55:54.182Z,15.27
2018-05-25T23:58:20.436Z,16.33
